Latest Coastal Weather Observations for Kingfish B

IDV60701

Issued at 1:51 pm EST Monday 29 August 2016 (issued every 10 minutes, with the page automatically refreshed every 10 minutes)

About coastal observations | Map of coastal stations | Coastal observations for VIC | Marine services | Other Formats
Station Details ID: 400139 Name: KINGFISH B (PLATFORM) Lat: -38.60 Lon: 148.19 Height: 31.4 m
Data from the previous 72 hours. | See also: Recent months for locations in Victoria
Date/Time
EST
Temp
°C
Wind Pressure Rain since
9am
mm
Weather Cloud Vis
km
Sea
Height
m
Swell
Dir  Spd
kts
Gust
kts
hPa Trend Height
m
Period
s
Dir
29/11:40am 15.1 NW 3 4 1023.9 - - - - - - - - -
29/11:30am 15.3 NW 4 5 1024.1 - - - - - - - - -
29/11:20am 15.3 NW 5 6 1024.2 - - - - - - - - -
29/11:10am 15.2 NW 4 6 1024.3 - - - - - - - - -
29/11:00am 15.2 NW 4 5 1024.5 - - - - - - - - -
29/10:50am 15.3 NW 3 4 1024.6 - - - - - - - - -
29/10:40am 15.4 NW 4 5 1024.8 - - - - - - - - -
29/10:30am 15.3 NW 4 5 1024.9 - - - - - - - - -
29/10:20am 15.2 NW 4 5 1024.9 - - - - - - - - -
29/10:10am 15.2 NW 3 5 1025.0 - - - - - - - - -
29/10:00am 15.2 NW 4 5 1025.0 - - - - - - - - -
29/09:50am 15.0 NNW 3 6 1025.0 - - - - - - - - -
29/09:40am 14.7 N 4 6 1025.1 - - - - - - - - -
29/09:30am 14.5 N 5 6 1025.1 - - - - - - - - -
29/09:20am 14.4 N 4 5 1105.9 - - - - - - - - -
29/09:10am 14.7 N 4 7 1025.1 - - - - - - - - -
 
Date/Time
EST
Temp
°C
Wind Pressure Rain since
9am
mm
Weather Cloud Vis
km
Sea
Height
m
Swell
Dir  Spd
kts
Gust
kts
hPa Trend Height
m
Period
s
Dir
28/03:20pm 10.9 S 6 8 1018.7 - - - - - - - - -
28/03:10pm 11.0 S 5 7 1018.7 - - - - - - - - -
28/02:50pm 11.2 S 6 8 1018.6 - - - - - - - - -
28/02:40pm 11.2 SSW 7 9 1018.8 - - - - - - - - -
28/02:30pm 11.3 SSW 7 10 1018.8 - - - - - - - - -
28/02:20pm 11.3 SSW 7 8 1018.6 - - - - - - - - -
28/02:10pm 11.3 SSW 6 8 1018.8 - - - - - - - - -
28/02:00pm 11.2 SSW 6 7 1018.6 - - - - - - - - -
28/01:50pm 11.3 SSW 7 9 1018.6 - - - - - - - - -
28/01:40pm 11.3 SSW 9 11 1018.6 - - - - - - - - -
28/01:30pm 11.4 SSW 9 11 1018.6 - - - - - - - - -
28/01:20pm 11.6 SSW 8 10 1018.6 - - - - - - - - -
28/01:10pm 11.8 SSW 8 11 1018.5 - - - - - - - - -
28/01:00pm 12.0 SSW 7 9 1018.6 - - - - - - - - -
28/12:50pm 12.5 SSW 7 10 1018.6 - - - - - - - - -
28/12:40pm 12.9 SSW 7 8 1018.5 - - - - - - - - -
28/12:30pm 13.1 SSW 8 10 1018.3 - - - - - - - - -
28/12:20pm 12.7 SSW 8 10 1018.6 - - - - - - - - -
28/12:10pm 12.5 SSW 9 12 1018.7 - - - - - - - - -
28/12:00pm 13.0 SSW 10 13 1018.6 - - - - - - - - -
28/11:50am 13.2 SW 13 16 1018.2 - - - - - - - - -
28/11:40am 13.2 SW 14 18 1018.3 - - - - - - - - -
28/11:30am 13.0 SW 14 18 1018.4 - - - - - - - - -
28/11:20am 12.9 SW 15 18 1018.6 - - - - - - - - -
28/11:10am 13.1 SW 15 19 1018.7 - - - - - - - - -
28/11:00am 13.4 SW 17 21 1018.6 - - - - - - - - -
28/10:50am 13.5 SW 16 19 1018.6 - - - - - - - - -
28/10:40am 13.7 SW 18 25 1018.6 - - - - - - - - -
28/10:30am 14.4 SW 21 26 1018.2 - - - - - - - - -
28/10:20am 14.6 SW 18 24 1018.3 - - - - - - - - -
28/10:10am 14.7 WSW 18 24 1018.3 - - - - - - - - -
28/10:00am 14.7 WSW 14 22 1018.5 - - - - - - - - -
28/09:50am 14.7 WSW 13 17 1018.4 - - - - - - - - -
28/09:40am 14.7 WSW 13 15 1018.4 - - - - - - - - -
28/09:30am 14.7 WSW 14 19 1018.1 - - - - - - - - -
28/09:20am 14.6 W 14 17 1018.0 - - - - - - - - -
28/09:10am 14.7 W 16 19 1017.8 - - - - - - - - -
28/09:00am 14.6 W 15 18 1017.8 - - - - - - - - -
28/08:50am 14.6 W 16 19 1017.8 - - - - - - - - -
28/08:40am 14.6 W 15 18 1017.7 - - - - - - - - -
28/08:30am 14.6 W 16 19 1017.7 - - - - - - - - -
28/08:20am 14.7 W 16 19 1017.6 - - - - - - - - -
28/08:10am 14.8 W 16 20 1017.6 - - - - - - - - -
28/08:00am 14.8 W 16 20 1017.6 - - - - - - - - -
28/07:50am 14.7 W 18 21 1017.4 - - - - - - - - -
28/07:40am 14.7 W 17 20 1017.5 - - - - - - - - -
28/07:30am 14.5 W 17 21 1017.6 - - - - - - - - -
28/07:20am 14.5 W 18 22 1017.4 - - - - - - - - -
28/07:10am 14.6 W 18 22 1017.3 - - - - - - - - -
28/07:00am 14.5 W 19 23 1017.2 - - - - - - - - -
28/06:50am 14.5 W 20 24 1016.8 - - - - - - - - -
28/06:40am 14.6 W 20 25 1016.9 - - - - - - - - -
28/06:30am 14.6 W 20 26 1016.9 - - - - - - - - -
28/06:20am 14.6 W 20 25 1016.6 - - - - - - - - -
28/06:10am 14.6 W 20 25 1016.6 - - - - - - - - -
28/06:00am 14.5 W 20 26 1016.4 - - - - - - - - -
28/05:50am 14.5 W 19 23 1016.2 - - - - - - - - -
28/05:40am 14.6 W 20 23 1016.0 - - - - - - - - -
28/05:30am 14.6 W 21 25 1015.7 - - - - - - - - -
28/05:20am 14.7 W 21 26 1015.4 - - - - - - - - -
28/05:10am 14.6 WNW 20 25 1015.5 - - - - - - - - -
28/05:00am 14.7 WNW 20 26 1015.3 - - - - - - - - -
28/04:50am 14.7 WNW 20 24 1015.1 - - - - - - - - -
28/04:40am 14.7 WNW 20 26 1015.1 - - - - - - - - -
28/04:30am 14.7 WNW 20 26 1015.2 - - - - - - - - -
28/04:20am 14.7 WNW 19 24 1015.1 - - - - - - - - -
28/04:10am 14.7 WNW 20 23 1015.2 - - - - - - - - -
28/04:00am 14.7 WNW 20 24 1015.3 - - - - - - - - -
28/03:50am 14.8 WNW 20 25 1015.2 - - - - - - - - -
28/03:40am 14.7 WNW 20 26 1015.1 - - - - - - - - -
28/03:30am 14.7 WNW 20 23 1014.9 - - - - - - - - -
28/03:20am 14.6 WNW 20 23 1014.9 - - - - - - - - -
28/03:10am 14.5 WNW 18 23 1015.0 - - - - - - - - -
28/03:00am 14.4 WNW 19 24 1014.9 - - - - - - - - -
28/02:50am 14.5 WNW 20 24 1014.9 - - - - - - - - -
28/02:40am 14.5 WNW 20 25 1015.0 - - - - - - - - -
28/02:30am 14.5 WNW 20 27 1015.0 - - - - - - - - -
28/02:20am 14.5 WNW 20 25 1015.0 - - - - - - - - -
28/02:10am 14.4 WNW 20 26 1015.1 - - - - - - - - -
28/02:00am 14.4 WNW 19 23 1015.0 - - - - - - - - -
28/01:50am 14.4 WNW 20 24 1015.1 - - - - - - - - -
28/01:40am 14.5 WNW 19 23 1015.2 - - - - - - - - -
28/01:30am 14.6 WNW 20 26 1015.3 - - - - - - - - -
28/01:20am 14.5 WNW 19 25 1015.3 - - - - - - - - -
28/01:10am 14.3 WNW 19 24 1015.6 - - - - - - - - -
28/01:00am 14.1 WNW 18 24 1015.6 - - - - - - - - -
28/12:50am 14.0 WNW 18 23 1015.7 - - - - - - - - -
28/12:40am 14.0 WNW 18 23 1015.6 - - - - - - - - -
28/12:30am 14.1 WNW 17 22 1015.7 - - - - - - - - -
28/12:20am 14.2 WNW 17 22 1015.9 - - - - - - - - -
28/12:10am 14.2 WNW 17 21 1016.0 - - - - - - - - -
28/12:00am 14.2 WNW 17 21 1016.2 - - - - - - - - -
 
Date/Time
EST
Temp
°C
Wind Pressure Rain since
9am
mm
Weather Cloud Vis
km
Sea
Height
m
Swell
Dir  Spd
kts
Gust
kts
hPa Trend Height
m
Period
s
Dir
27/11:40pm 14.3 WNW 16 19 1016.4 - - - - - - - - -
27/11:30pm 14.4 WNW 14 17 1016.6 - - - - - - - - -
27/11:20pm 14.4 WNW 15 17 1016.6 - - - - - - - - -
27/11:10pm 14.4 WNW 16 20 1016.6 - - - - - - - - -
27/11:00pm 14.3 WNW 16 20 1016.5 - - - - - - - - -
27/10:50pm 14.2 WNW 14 18 1016.3 - - - - - - - - -
27/10:40pm 14.2 WNW 15 18 1016.6 - - - - - - - - -
27/10:30pm 14.2 WNW 15 18 1016.6 - - - - - - - - -
27/10:20pm 14.1 WNW 14 17 1016.8 - - - - - - - - -
27/10:10pm 14.2 WNW 13 16 1017.0 - - - - - - - - -
27/10:00pm 14.4 WNW 12 15 1017.2 - - - - - - - - -
27/09:50pm 14.4 WNW 12 16 1017.4 - - - - - - - - -
27/09:40pm 14.4 WNW 14 17 1017.4 - - - - - - - - -
27/09:30pm 14.6 WNW 13 16 1017.6 - - - - - - - - -
27/09:20pm 14.6 WNW 12 16 1017.6 - - - - - - - - -
27/09:10pm 14.7 WNW 12 16 1017.6 - - - - - - - - -
27/09:00pm 14.7 WNW 13 16 1017.7 - - - - - - - - -
27/08:50pm 14.3 WNW 11 15 1017.9 - - - - - - - - -
27/08:40pm 14.5 WNW 11 15 1017.8 - - - - - - - - -
27/08:30pm 14.8 WNW 12 14 1017.7 - - - - - - - - -
27/08:20pm 14.7 WNW 12 15 1017.4 - - - - - - - - -
27/08:10pm 14.6 WNW 13 15 1017.4 - - - - - - - - -
27/08:00pm 14.2 W 11 14 1017.4 - - - - - - - - -
27/07:50pm 14.2 WNW 9 11 1017.5 - - - - - - - - -
27/07:40pm 14.3 WNW 5 8 1017.5 - - - - - - - - -
27/07:30pm 14.4 WNW 4 6 1017.3 - - - - - - - - -
27/07:20pm 14.2 WNW 4 5 1017.4 - - - - - - - - -
27/07:10pm 14.1 WNW 4 4 1017.4 - - - - - - - - -
27/07:00pm 13.6 W 3 4 1017.1 - - - - - - - - -
27/06:50pm 13.2 W 3 4 1017.1 - - - - - - - - -
27/06:40pm 13.0 W 3 3 1017.1 - - - - - - - - -
27/06:30pm 12.9 WSW 3 4 1017.1 - - - - - - - - -
27/06:20pm 12.7 WSW 3 4 1017.1 - - - - - - - - -
27/06:10pm 12.9 WSW 2 4 1017.0 - - - - - - - - -
27/06:00pm 13.1 WSW 3 6 1017.1 - - - - - - - - -
27/05:50pm 13.1 WSW 6 7 1017.1 - - - - - - - - -
27/05:40pm 13.1 WSW 6 7 1016.9 - - - - - - - - -
27/05:30pm 13.1 WSW 5 7 1016.6 - - - - - - - - -
27/05:20pm 13.1 WSW 4 6 1016.6 - - - - - - - - -
27/05:10pm 13.1 SW 4 6 1016.6 - - - - - - - - -
27/05:00pm 13.1 SW 6 9 1016.9 - - - - - - - - -
27/04:50pm 13.1 SW 7 9 1016.6 - - - - - - - - -
27/04:40pm 13.2 SW 8 10 1016.4 - - - - - - - - -
27/04:30pm 13.3 SW 7 8 1016.4 - - - - - - - - -
27/04:20pm 13.4 SW 8 10 1016.2 - - - - - - - - -
27/04:10pm 13.3 SW 9 10 1016.3 - - - - - - - - -
27/04:00pm 13.4 SW 7 9 1016.4 - - - - - - - - -
27/03:50pm 13.4 SW 9 11 1016.5 - - - - - - - - -
27/03:40pm 13.6 SW 9 12 1016.7 - - - - - - - - -
27/03:30pm 13.7 SW 9 10 1016.8 - - - - - - - - -
27/03:20pm 13.7 SW 7 9 1016.8 - - - - - - - - -
27/03:10pm 13.9 SW 9 11 1016.5 - - - - - - - - -
27/03:00pm 14.0 SW 10 13 1016.6 - - - - - - - - -
27/02:50pm 14.2 SW 10 12 1016.7 - - - - - - - - -
27/02:40pm 14.2 WSW 8 11 1016.8 - - - - - - - - -
27/02:30pm 14.3 WSW 9 12 1016.6 - - - - - - - - -
27/02:20pm 14.3 WSW 9 13 1016.8 - - - - - - - - -
27/02:10pm 14.3 WSW 9 13 1016.9 - - - - - - - - -
27/02:00pm 14.3 WSW 9 11 1017.0 - - - - - - - - -
27/01:50pm 14.2 WSW 9 11 1016.9 - - - - - - - - -
27/01:40pm 14.0 WSW 11 13 1016.9 - - - - - - - - -
27/01:30pm 14.0 WSW 13 15 1017.1 - - - - - - - - -
27/01:20pm 14.0 WSW 13 16 1017.1 - - - - - - - - -
27/01:10pm 14.0 WSW 14 16 1017.1 - - - - - - - - -
27/01:00pm 14.0 WSW 15 18 1017.1 - - - - - - - - -
27/12:50pm 13.9 WSW 16 19 1017.1 - - - - - - - - -
27/12:40pm 13.9 WSW 16 19 1017.4 - - - - - - - - -
27/12:30pm 13.7 WSW 15 18 1017.5 - - - - - - - - -
27/12:20pm 13.7 WSW 15 18 1017.5 - - - - - - - - -
27/12:10pm 13.7 WSW 16 18 1017.6 - - - - - - - - -
27/12:00pm 13.7 WSW 17 20 1017.7 - - - - - - - - -
27/11:50am 13.6 W 16 19 1017.6 - - - - - - - - -
27/11:40am 13.6 W 15 19 1017.8 - - - - - - - - -
27/11:30am 13.6 W 15 19 1017.9 - - - - - - - - -
27/11:20am 13.6 W 12 16 1018.1 - - - - - - - - -
27/11:10am 13.5 W 11 15 1018.4 - - - - - - - - -
27/11:00am 13.6 W 11 14 1018.5 - - - - - - - - -
27/10:50am 13.7 W 11 14 1018.5 - - - - - - - - -
27/10:40am 13.5 W 12 14 1018.6 - - - - - - - - -
27/10:30am 13.5 W 12 15 1019.0 - - - - - - - - -
27/10:20am 13.5 W 13 15 1019.1 - - - - - - - - -
27/10:10am 13.5 W 12 15 1019.1 - - - - - - - - -
27/10:00am 13.7 W 13 16 1019.0 - - - - - - - - -
27/09:50am 13.5 W 13 17 1019.1 - - - - - - - - -
27/09:40am 13.4 W 14 17 1019.5 - - - - - - - - -
27/09:30am 13.5 W 13 17 1019.5 - - - - - - - - -
27/09:10am 13.6 W 15 17 1019.5 - - - - - - - - -
27/09:00am 13.6 W 14 17 1019.7 - - - - - - - - -
27/08:50am 13.7 W 14 17 1019.8 - - - - - - - - -
27/08:40am 13.7 W 15 19 1019.8 - - - - - - - - -
27/08:30am 13.8 W 15 19 1019.9 - - - - - - - - -
27/08:20am 13.6 W 16 19 1019.8 - - - - - - - - -
27/08:10am 13.7 W 16 18 1019.8 - - - - - - - - -
27/08:00am 13.6 W 15 19 1019.9 - - - - - - - - -
27/07:50am 13.7 W 17 19 1019.8 - - - - - - - - -
27/07:40am 13.5 W 17 19 1019.8 - - - - - - - - -
27/07:30am 13.5 W 16 19 1019.6 - - - - - - - - -
27/07:20am 13.4 W 16 18 1018.9 - - - - - - - - -
27/07:10am 13.3 W 15 18 1018.7 - - - - - - - - -
27/07:00am 13.1 W 15 18 1018.8 - - - - - - - - -
27/06:50am 13.0 W 14 18 1018.8 - - - - - - - - -
27/06:40am 12.8 W 15 17 1018.8 - - - - - - - - -
27/06:30am 12.7 W 15 18 1018.5 - - - - - - - - -
27/06:20am 12.5 W 14 18 1018.5 - - - - - - - - -
27/06:10am 12.4 W 15 18 1018.6 - - - - - - - - -
27/06:00am 12.4 W 15 19 1018.3 - - - - - - - - -
27/05:50am 12.1 W 15 18 1018.2 - - - - - - - - -
27/05:40am 12.1 W 15 18 1018.1 - - - - - - - - -
27/05:30am 12.3 W 15 18 1017.8 - - - - - - - - -
27/05:20am 12.3 W 15 18 1018.0 - - - - - - - - -
27/05:10am 12.2 W 15 17 1018.4 - - - - - - - - -
27/05:00am 12.3 W 16 19 1018.4 - - - - - - - - -
27/04:50am 12.3 W 16 18 1018.3 - - - - - - - - -
27/04:40am 12.4 W 15 19 1018.6 - - - - - - - - -
27/04:30am 12.4 W 15 18 1018.4 - - - - - - - - -
27/04:20am 12.4 W 16 19 1018.4 - - - - - - - - -
27/04:10am 12.4 W 16 20 1018.2 - - - - - - - - -
27/04:00am 12.4 W 15 18 1018.1 - - - - - - - - -
27/03:50am 12.4 W 15 18 1018.1 - - - - - - - - -
27/03:40am 12.4 W 14 19 1018.2 - - - - - - - - -
27/03:30am 12.3 W 15 18 1018.2 - - - - - - - - -
27/03:20am 12.3 W 15 19 1018.2 - - - - - - - - -
27/03:10am 12.4 W 15 18 1018.1 - - - - - - - - -
27/03:00am 12.4 W 16 19 1018.0 - - - - - - - - -
27/02:50am 12.4 W 15 18 1018.2 - - - - - - - - -
27/02:40am 12.4 W 16 19 1018.0 - - - - - - - - -
27/02:30am 12.6 W 16 19 1018.1 - - - - - - - - -
27/02:20am 12.6 W 16 19 1018.2 - - - - - - - - -
27/02:10am 12.7 W 16 20 1018.3 - - - - - - - - -
27/02:00am 12.7 W 16 19 1018.2 - - - - - - - - -
27/01:50am 12.7 W 16 18 1018.5 - - - - - - - - -
27/01:40am 12.7 W 16 18 1018.6 - - - - - - - - -
27/01:30am 12.6 W 14 16 1018.7 - - - - - - - - -
27/01:20am 12.5 W 14 17 1018.5 - - - - - - - - -
27/01:10am 12.5 W 14 16 1018.6 - - - - - - - - -
27/01:00am 12.7 W 14 16 1018.9 - - - - - - - - -
27/12:50am 12.7 W 13 17 1018.9 - - - - - - - - -
27/12:40am 12.7 W 15 18 1018.7 - - - - - - - - -
27/12:30am 12.7 W 15 19 1018.8 - - - - - - - - -
27/12:20am 12.8 W 15 19 1018.9 - - - - - - - - -
27/12:10am 12.8 WSW 15 20 1018.9 - - - - - - - - -
27/12:00am 12.9 WSW 16 19 1018.9 - - - - - - - - -
 
Date/Time
EST
Temp
°C
Wind Pressure Rain since
9am
mm
Weather Cloud Vis
km
Sea
Height
m
Swell
Dir  Spd
kts
Gust
kts
hPa Trend Height
m
Period
s
Dir
26/11:50pm 12.8 W 16 19 1018.9 - - - - - - - - -
26/11:40pm 12.8 W 14 17 1018.9 - - - - - - - - -
26/11:30pm 12.8 W 15 18 1018.9 - - - - - - - - -
26/11:20pm 12.9 W 16 19 1019.0 - - - - - - - - -
26/11:10pm 12.9 W 15 18 1019.1 - - - - - - - - -
26/11:00pm 13.2 W 14 17 1019.2 - - - - - - - - -
26/10:50pm 12.8 W 14 16 1019.0 - - - - - - - - -
26/10:40pm 12.7 W 14 17 1019.1 - - - - - - - - -
26/10:30pm 12.8 W 14 17 1019.1 - - - - - - - - -
26/10:20pm 12.8 W 14 16 1019.2 - - - - - - - - -
26/10:10pm 12.8 WSW 13 15 1019.3 - - - - - - - - -
26/10:00pm 12.9 W 12 14 1019.1 - - - - - - - - -
26/09:50pm 12.9 WSW 12 14 1019.1 - - - - - - - - -
26/09:40pm 12.9 W 12 15 1019.1 - - - - - - - - -
26/09:30pm 13.0 WSW 12 15 1019.1 - - - - - - - - -
26/09:20pm 13.0 WSW 13 15 1019.0 - - - - - - - - -
26/09:10pm 12.9 WSW 14 17 1018.9 - - - - - - - - -
26/09:00pm 13.1 WSW 16 24 1019.0 - - - - - - - - -
26/08:50pm 13.1 WSW 13 17 1019.1 - - - - - - - - -
26/08:40pm 13.0 WSW 14 17 1019.0 - - - - - - - - -
26/08:30pm 12.8 WSW 14 18 1018.9 - - - - - - - - -
26/08:20pm 12.6 WSW 10 16 1019.0 - - - - - - - - -
26/08:10pm 12.7 WSW 12 16 1019.0 - - - - - - - - -
26/08:00pm 12.8 WSW 11 16 1019.0 - - - - - - - - -
26/07:50pm 12.9 WSW 13 15 1018.9 - - - - - - - - -
26/07:40pm 12.9 WSW 13 17 1018.9 - - - - - - - - -
26/07:30pm 13.1 WSW 13 17 1018.8 - - - - - - - - -
26/07:20pm 13.1 WSW 13 17 1018.7 - - - - - - - - -
26/07:10pm 13.2 WSW 12 17 1018.8 - - - - - - - - -
26/07:00pm 13.1 WSW 10 13 1018.6 - - - - - - - - -
26/06:50pm 13.1 WSW 11 16 1018.6 - - - - - - - - -
26/06:40pm 13.2 WSW 11 13 1018.7 - - - - - - - - -
26/06:30pm 13.1 WSW 11 13 1018.7 - - - - - - - - -
26/06:10pm 13.1 WSW 11 13 1018.4 - - - - - - - - -
26/06:00pm 13.0 WSW 11 13 1018.4 - - - - - - - - -
26/05:50pm 12.9 WSW 11 14 1018.3 - - - - - - - - -
26/05:40pm 13.0 WSW 12 14 1018.1 - - - - - - - - -
26/05:30pm 12.9 WSW 13 16 1017.8 - - - - - - - - -
26/05:20pm 12.9 WSW 14 17 1018.0 - - - - - - - - -
26/05:10pm 13.0 WSW 14 18 1017.9 - - - - - - - - -
26/05:00pm 13.0 WSW 14 17 1017.9 - - - - - - - - -
26/04:50pm 13.0 WSW 15 18 1017.6 - - - - - - - - -
26/04:40pm 12.9 WSW 14 18 1017.4 - - - - - - - - -
26/04:30pm 12.7 SW 14 18 1017.5 - - - - - - - - -
26/04:20pm 12.8 WSW 14 17 1017.6 - - - - - - - - -
26/04:10pm 12.8 WSW 15 20 1017.6 - - - - - - - - -
26/04:00pm 12.9 WSW 16 19 1017.3 - - - - - - - - -
26/03:50pm 13.0 WSW 16 19 1017.4 - - - - - - - - -
26/03:40pm 13.0 WSW 15 19 1017.1 - - - - - - - - -
26/03:30pm 12.9 WSW 14 18 1017.3 - - - - - - - - -
26/03:20pm 13.0 WSW 16 19 1017.3 - - - - - - - - -
26/03:10pm 13.0 WSW 14 18 1017.2 - - - - - - - - -
26/03:00pm 13.1 WSW 14 18 1017.3 - - - - - - - - -
26/02:50pm 13.0 WSW 13 16 1017.3 - - - - - - - - -
26/02:40pm 13.1 WSW 14 17 1017.3 - - - - - - - - -
26/02:30pm 13.2 WSW 14 17 1017.2 - - - - - - - - -
26/02:20pm 13.0 WSW 15 18 1017.2 - - - - - - - - -
26/02:10pm 13.0 WSW 14 17 1016.9 - - - - - - - - -
26/02:00pm 12.9 WSW 13 17 1016.8 - - - - - - - - -

Other Formats:

Comma delimited format used in spreadsheet applications
http://www.bom.gov.au/fwo/IDV60701/IDV60701.55039.axf

JavaScript Object Notation format (JSON) in row-major order
http://www.bom.gov.au/fwo/IDV60701/IDV60701.55039.json